createdAt,value
2023-04-13T00:01:50.929Z,8.49
2023-04-13T00:08:13.174Z,8.51
2023-04-13T00:10:42.511Z,8.48
2023-04-13T00:13:11.090Z,8.47
2023-04-13T00:15:42.168Z,8.47
2023-04-13T00:18:12.580Z,8.47
2023-04-13T00:20:42.116Z,8.46
2023-04-13T00:23:10.783Z,8.46
2023-04-13T00:25:38.912Z,8.46
2023-04-13T00:28:08.350Z,8.46
2023-04-13T00:30:36.926Z,8.45
2023-04-13T00:33:07.444Z,8.44
2023-04-13T00:35:35.657Z,8.44
2023-04-13T00:38:04.583Z,8.43
2023-04-13T00:40:33.958Z,8.43
2023-04-13T00:43:02.782Z,8.43
2023-04-13T00:45:31.539Z,8.41
2023-04-13T00:48:04.130Z,8.39
2023-04-13T00:50:34.222Z,8.39
2023-04-13T00:53:02.547Z,8.40
2023-04-13T00:55:33.330Z,8.40
2023-04-13T00:58:02.085Z,8.40
2023-04-13T01:00:30.477Z,8.41
2023-04-13T01:03:02.690Z,8.42
2023-04-13T01:05:37.801Z,8.42
2023-04-13T01:08:18.615Z,8.42
2023-04-13T01:11:06.029Z,8.42
2023-04-13T01:13:44.708Z,8.41
2023-04-13T01:16:25.568Z,8.42
2023-04-13T01:18:54.265Z,8.41
2023-04-13T01:21:27.852Z,8.42
2023-04-13T01:24:09.385Z,8.42
2023-04-13T01:26:58.644Z,8.42
2023-04-13T01:29:28.087Z,8.42
2023-04-13T01:31:57.195Z,8.43
2023-04-13T01:34:25.629Z,8.43
2023-04-13T01:36:53.876Z,8.44
2023-04-13T01:39:22.555Z,8.43
2023-04-13T01:42:02.378Z,8.43
2023-04-13T01:44:33.161Z,8.43
2023-04-13T01:47:16.518Z,8.44
2023-04-13T01:50:04.465Z,8.45
2023-04-13T01:52:36.586Z,8.46
2023-04-13T01:55:06.280Z,8.46
2023-04-13T01:57:36.217Z,8.47
2023-04-13T02:00:11.073Z,8.47
2023-04-13T02:02:41.962Z,8.45
2023-04-13T02:05:11.662Z,8.44
2023-04-13T02:07:43.048Z,8.42
2023-04-13T02:10:12.276Z,8.42
2023-04-13T02:12:40.986Z,8.42
2023-04-13T02:15:11.255Z,8.42
2023-04-13T02:17:45.083Z,8.43
2023-04-13T02:20:13.343Z,8.43
2023-04-13T02:22:49.087Z,8.42
2023-04-13T02:25:19.062Z,8.40
2023-04-13T02:27:47.683Z,8.38
2023-04-13T02:30:17.586Z,8.37
2023-04-13T02:33:00.882Z,8.36
2023-04-13T02:35:30.428Z,8.35
2023-04-13T02:37:58.648Z,8.34
2023-04-13T02:40:28.537Z,8.32
2023-04-13T02:43:00.160Z,8.30
2023-04-13T02:45:29.517Z,8.29
2023-04-13T02:48:06.164Z,8.30
2023-04-13T02:50:35.310Z,8.28
2023-04-13T02:53:08.135Z,8.26
2023-04-13T02:55:42.187Z,8.25
2023-04-13T02:58:12.775Z,8.24
2023-04-13T03:00:42.349Z,8.21
2023-04-13T03:03:20.576Z,8.20
2023-04-13T03:05:51.633Z,8.18
2023-04-13T03:08:26.146Z,8.15
2023-04-13T03:11:09.741Z,8.14
2023-04-13T03:13:39.966Z,8.13
2023-04-13T03:16:11.458Z,8.13
2023-04-13T03:18:39.819Z,8.11
2023-04-13T03:21:09.797Z,8.09
2023-04-13T03:23:43.958Z,8.07
2023-04-13T03:26:13.434Z,8.06
2023-04-13T03:28:41.816Z,8.06
2023-04-13T03:31:10.552Z,8.06
2023-04-13T03:33:40.420Z,8.05
2023-04-13T03:36:09.966Z,8.06
2023-04-13T03:38:42.088Z,8.06
2023-04-13T03:41:11.499Z,8.05
2023-04-13T03:43:40.000Z,8.06
2023-04-13T03:46:13.419Z,8.07
2023-04-13T03:48:42.223Z,8.08
2023-04-13T03:51:12.170Z,8.09
2023-04-13T03:53:50.686Z,8.11
2023-04-13T03:56:23.486Z,8.14
2023-04-13T03:58:52.373Z,8.15
2023-04-13T04:01:24.006Z,8.16
2023-04-13T04:03:57.497Z,8.17
2023-04-13T04:06:29.849Z,8.17
2023-04-13T04:09:10.328Z,8.18
2023-04-13T04:11:43.842Z,8.19
2023-04-13T04:14:12.219Z,8.19
2023-04-13T04:16:48.039Z,8.20
2023-04-13T04:19:17.358Z,8.22
2023-04-13T04:21:47.249Z,8.24
2023-04-13T04:24:22.923Z,8.25
2023-04-13T04:26:55.406Z,8.24
2023-04-13T04:29:30.005Z,8.24
2023-04-13T04:31:59.157Z,8.25
2023-04-13T04:34:28.269Z,8.27
2023-04-13T04:37:00.230Z,8.29
2023-04-13T04:39:35.457Z,8.31
2023-04-13T04:42:11.733Z,8.31
2023-04-13T04:44:40.169Z,8.31
2023-04-13T04:47:13.515Z,8.31
2023-04-13T04:49:58.144Z,8.31
2023-04-13T04:52:26.715Z,8.32
2023-04-13T04:54:56.314Z,8.32
2023-04-13T04:57:29.761Z,8.34
2023-04-13T04:59:58.989Z,8.36
2023-04-13T05:02:28.317Z,8.38
2023-04-13T05:04:57.741Z,8.43
2023-04-13T05:07:28.890Z,8.48
2023-04-13T05:09:57.668Z,8.54
2023-04-13T05:12:27.116Z,8.59
2023-04-13T05:14:56.264Z,8.63
2023-04-13T05:17:26.331Z,8.66
2023-04-13T05:19:54.732Z,8.72
2023-04-13T05:22:33.024Z,8.80
2023-04-13T05:25:06.571Z,8.87
2023-04-13T05:27:35.161Z,8.95
2023-04-13T05:30:09.730Z,9.04
2023-04-13T05:32:41.410Z,9.09
2023-04-13T05:35:10.469Z,9.12
2023-04-13T05:37:41.506Z,9.17
2023-04-13T05:40:15.105Z,9.25
2023-04-13T05:42:43.864Z,9.34
2023-04-13T05:45:17.189Z,9.38
2023-04-13T05:48:06.472Z,9.40
2023-04-13T05:50:37.755Z,9.41
2023-04-13T05:53:08.048Z,9.41
2023-04-13T05:55:45.678Z,9.42
2023-04-13T05:58:19.372Z,9.46
2023-04-13T06:00:50.861Z,9.51
2023-04-13T06:03:21.013Z,9.54
2023-04-13T06:05:50.051Z,9.57
2023-04-13T06:08:18.280Z,9.60
2023-04-13T06:10:46.614Z,9.63
2023-04-13T06:13:20.549Z,9.67
2023-04-13T06:15:53.031Z,9.70
2023-04-13T06:18:21.248Z,9.75
2023-04-13T06:20:52.562Z,9.79
2023-04-13T06:23:21.963Z,9.82
2023-04-13T06:25:50.972Z,9.86
2023-04-13T06:28:29.236Z,9.90
2023-04-13T06:30:57.993Z,9.96
2023-04-13T06:33:26.723Z,10.00
2023-04-13T06:35:55.869Z,10.03
2023-04-13T06:38:24.287Z,10.05
2023-04-13T06:41:02.884Z,10.06
2023-04-13T06:43:33.843Z,10.07
2023-04-13T06:46:19.593Z,10.11
2023-04-13T06:48:51.971Z,10.18
2023-04-13T06:51:23.929Z,10.24
2023-04-13T06:53:54.683Z,10.31
2023-04-13T06:56:25.841Z,10.40
2023-04-13T06:59:00.826Z,10.50
2023-04-13T07:01:30.709Z,10.60
2023-04-13T07:04:02.583Z,10.72
2023-04-13T07:06:32.549Z,10.84
2023-04-13T07:09:01.709Z,10.90
2023-04-13T07:11:38.128Z,10.95
2023-04-13T07:14:08.856Z,10.98
2023-04-13T07:16:37.170Z,11.00
2023-04-13T07:19:05.621Z,10.96
2023-04-13T07:21:35.932Z,10.92
2023-04-13T07:24:06.150Z,10.92
2023-04-13T07:26:41.282Z,10.99
2023-04-13T07:29:13.733Z,11.08
2023-04-13T07:31:45.199Z,11.14
2023-04-13T07:34:14.105Z,11.23
2023-04-13T07:36:46.313Z,11.34
2023-04-13T07:39:17.688Z,11.47
2023-04-13T07:41:48.248Z,11.62
2023-04-13T07:44:26.643Z,11.68
2023-04-13T07:46:56.380Z,11.79
2023-04-13T07:49:25.768Z,11.90
2023-04-13T07:51:54.827Z,11.90
2023-04-13T07:54:23.437Z,11.91
2023-04-13T07:56:52.121Z,11.93
2023-04-13T07:59:22.174Z,11.90
2023-04-13T08:01:53.252Z,11.85
2023-04-13T08:04:22.559Z,11.85
2023-04-13T08:06:54.292Z,11.89
2023-04-13T08:09:23.455Z,11.92
2023-04-13T08:11:51.862Z,11.96
2023-04-13T08:14:25.787Z,11.96
2023-04-13T08:16:55.521Z,11.92
2023-04-13T08:19:24.274Z,11.86
2023-04-13T08:21:54.895Z,11.81
2023-04-13T08:24:24.449Z,11.79
2023-04-13T08:26:55.144Z,11.82
2023-04-13T08:29:25.468Z,11.88
2023-04-13T08:31:58.343Z,11.88
2023-04-13T08:34:26.705Z,11.85
2023-04-13T08:36:55.358Z,11.84
2023-04-13T08:39:27.515Z,11.84
2023-04-13T08:41:55.979Z,11.84
2023-04-13T08:44:24.380Z,11.86
2023-04-13T08:46:59.738Z,11.89
2023-04-13T08:49:32.634Z,11.89
2023-04-13T08:52:23.662Z,11.88
2023-04-13T08:54:58.373Z,11.86
2023-04-13T08:57:31.105Z,11.87
2023-04-13T08:59:59.440Z,11.89
2023-04-13T09:02:34.678Z,11.90
2023-04-13T09:05:14.115Z,11.93
2023-04-13T09:07:44.880Z,11.98
2023-04-13T09:10:16.944Z,12.01
2023-04-13T09:12:48.631Z,12.02
2023-04-13T09:15:17.012Z,12.04
2023-04-13T09:18:13.884Z,12.06
2023-04-13T09:20:57.839Z,12.08
2023-04-13T09:23:26.752Z,12.13
2023-04-13T09:26:08.033Z,12.17
2023-04-13T09:28:47.216Z,12.20
2023-04-13T09:31:16.029Z,12.21
2023-04-13T09:33:49.679Z,12.22
2023-04-13T09:36:24.554Z,12.21
2023-04-13T09:38:55.441Z,12.19
2023-04-13T09:41:36.637Z,12.21
2023-04-13T09:44:18.948Z,12.23
2023-04-13T09:47:00.603Z,12.25
2023-04-13T09:49:39.430Z,12.28
2023-04-13T09:52:25.210Z,12.32
2023-04-13T09:54:59.010Z,12.33
2023-04-13T09:57:28.273Z,12.36
2023-04-13T09:59:57.873Z,12.35
2023-04-13T10:02:27.809Z,12.33
2023-04-13T10:04:56.470Z,12.29
2023-04-13T10:07:28.926Z,12.29
2023-04-13T10:09:57.188Z,12.29
2023-04-13T10:12:25.769Z,12.31
2023-04-13T10:14:55.256Z,12.37
2023-04-13T10:17:37.609Z,12.40
2023-04-13T10:20:10.349Z,12.37
2023-04-13T10:22:43.204Z,12.31
2023-04-13T10:25:25.690Z,12.22
2023-04-13T10:28:00.698Z,12.18
2023-04-13T10:30:29.294Z,12.16
2023-04-13T10:33:09.887Z,12.13
2023-04-13T10:35:40.096Z,12.09
2023-04-13T10:38:16.190Z,12.10
2023-04-13T10:40:48.012Z,12.12
2023-04-13T10:43:29.765Z,12.14
2023-04-13T10:46:13.170Z,12.13
2023-04-13T10:48:41.881Z,12.06
2023-04-13T10:51:13.184Z,11.99
2023-04-13T10:53:41.578Z,11.93
2023-04-13T10:56:17.062Z,11.92
2023-04-13T10:58:52.118Z,11.89
2023-04-13T11:01:20.902Z,11.84
2023-04-13T11:04:03.318Z,11.82
2023-04-13T11:06:38.111Z,11.82
2023-04-13T11:09:07.653Z,11.81
2023-04-13T11:11:37.073Z,11.76
2023-04-13T11:14:05.241Z,11.69
2023-04-13T11:16:44.090Z,11.61
2023-04-13T11:19:13.187Z,11.52
2023-04-13T11:21:41.349Z,11.48
2023-04-13T11:24:10.302Z,11.45
2023-04-13T11:26:38.814Z,11.42
2023-04-13T11:29:17.689Z,11.36
2023-04-13T11:31:46.092Z,11.32
2023-04-13T11:34:22.681Z,11.31
2023-04-13T11:37:02.298Z,11.28
2023-04-13T11:39:32.378Z,11.21
2023-04-13T11:42:05.396Z,11.14
2023-04-13T11:44:36.842Z,11.06
2023-04-13T11:47:06.168Z,10.96
2023-04-13T11:49:48.196Z,10.87
2023-04-13T11:52:17.575Z,10.86
2023-04-13T11:54:46.038Z,10.84
2023-04-13T11:57:14.333Z,10.83
2023-04-13T11:59:47.906Z,10.82
2023-04-13T12:02:22.018Z,10.81
2023-04-13T12:04:51.637Z,10.78
2023-04-13T12:07:20.981Z,10.79
2023-04-13T12:09:56.657Z,10.82
2023-04-13T12:20:07.303Z,10.82
2023-04-13T12:25:33.562Z,10.76
2023-04-13T12:28:03.366Z,10.69
2023-04-13T12:30:35.397Z,10.62
2023-04-13T12:33:19.926Z,10.58
2023-04-13T12:35:48.088Z,10.55
2023-04-13T12:38:18.429Z,10.53
2023-04-13T12:40:47.166Z,10.54
2023-04-13T12:43:15.580Z,10.51
2023-04-13T12:45:44.998Z,10.43
2023-04-13T12:48:13.732Z,10.39
2023-04-13T12:50:46.663Z,10.38
2023-04-13T12:53:16.475Z,10.39
2023-04-13T12:55:44.867Z,10.42
2023-04-13T12:58:13.020Z,10.44
2023-04-13T13:00:41.627Z,10.47
2023-04-13T13:03:30.588Z,10.49
2023-04-13T13:05:59.594Z,10.50
2023-04-13T13:08:28.150Z,10.51
2023-04-13T13:10:58.630Z,10.50
2023-04-13T13:13:27.115Z,10.52
2023-04-13T13:15:55.348Z,10.58
2023-04-13T13:18:30.076Z,10.58
2023-04-13T13:21:03.682Z,10.55
2023-04-13T13:23:32.131Z,10.47
2023-04-13T13:26:22.265Z,10.46
2023-04-13T13:28:51.031Z,10.47
2023-04-13T13:31:19.627Z,10.50
2023-04-13T13:33:48.824Z,10.53
2023-04-13T13:36:17.170Z,10.55
2023-04-13T13:38:45.297Z,10.55
2023-04-13T13:41:13.754Z,10.55
2023-04-13T13:43:41.902Z,10.59
2023-04-13T13:46:11.291Z,10.63
2023-04-13T13:48:41.110Z,10.67
2023-04-13T13:51:27.775Z,10.70
2023-04-13T13:53:56.316Z,10.71
2023-04-13T13:56:24.610Z,10.71
2023-04-13T13:58:52.754Z,10.72
2023-04-13T14:01:21.121Z,10.75
2023-04-13T14:03:50.324Z,10.78
2023-04-13T14:06:18.703Z,10.81
2023-04-13T14:08:49.504Z,10.86
2023-04-13T14:11:18.315Z,10.89
2023-04-13T14:13:46.507Z,10.91
2023-04-13T14:16:19.556Z,10.93
2023-04-13T14:18:52.010Z,10.96
2023-04-13T14:21:21.936Z,11.00
2023-04-13T14:23:51.436Z,11.03
2023-04-13T14:26:19.776Z,11.05
2023-04-13T14:28:48.134Z,11.05
2023-04-13T14:31:16.828Z,11.03
2023-04-13T14:33:46.101Z,10.98
2023-04-13T14:36:15.677Z,10.95
2023-04-13T14:38:44.177Z,10.92
2023-04-13T14:41:12.346Z,10.90
2023-04-13T14:43:40.657Z,10.88
2023-04-13T14:46:10.946Z,10.87
2023-04-13T14:48:39.481Z,10.87
2023-04-13T14:51:07.652Z,10.84
2023-04-13T14:53:35.978Z,10.81
2023-04-13T14:56:05.596Z,10.81
2023-04-13T14:58:34.716Z,10.82
2023-04-13T15:01:19.724Z,10.84
2023-04-13T15:03:49.517Z,10.84
2023-04-13T15:06:18.887Z,10.83
2023-04-13T15:08:47.684Z,10.82
2023-04-13T15:11:19.077Z,10.81
2023-04-13T15:13:49.371Z,10.79
2023-04-13T15:16:18.398Z,10.77
2023-04-13T15:18:46.913Z,10.76
2023-04-13T15:21:15.703Z,10.76
2023-04-13T15:23:45.195Z,10.76
2023-04-13T15:26:17.594Z,10.75
2023-04-13T15:28:48.965Z,10.75
2023-04-13T15:31:17.262Z,10.74
2023-04-13T15:33:45.467Z,10.73
2023-04-13T15:36:15.987Z,10.72
2023-04-13T15:38:45.581Z,10.71
2023-04-13T15:41:13.691Z,10.69
2023-04-13T15:43:43.836Z,10.65
2023-04-13T15:46:12.204Z,10.62
2023-04-13T15:48:42.606Z,10.59
2023-04-13T15:51:12.362Z,10.57
2023-04-13T15:53:40.594Z,10.57
2023-04-13T15:56:09.204Z,10.55
2023-04-13T15:58:37.456Z,10.53
2023-04-13T16:01:12.305Z,10.51
2023-04-13T16:03:41.115Z,10.48
2023-04-13T16:06:10.717Z,10.48
2023-04-13T16:08:39.713Z,10.47
2023-04-13T16:11:08.089Z,10.47
2023-04-13T16:13:49.002Z,10.46
2023-04-13T16:16:24.061Z,10.44
2023-04-13T16:19:00.495Z,10.43
2023-04-13T16:21:30.403Z,10.41
2023-04-13T16:23:58.750Z,10.40
2023-04-13T16:26:27.663Z,10.38
2023-04-13T16:28:56.494Z,10.37
2023-04-13T16:31:24.847Z,10.34
2023-04-13T16:33:57.025Z,10.33
2023-04-13T16:36:26.055Z,10.31
2023-04-13T16:38:54.288Z,10.30
2023-04-13T16:41:22.477Z,10.29
2023-04-13T16:43:50.700Z,10.29
2023-04-13T16:46:22.724Z,10.28
2023-04-13T16:48:52.253Z,10.28
2023-04-13T16:51:20.511Z,10.28
2023-04-13T16:53:48.724Z,10.29
2023-04-13T16:56:17.246Z,10.32
2023-04-13T16:58:45.974Z,10.34
2023-04-13T17:01:14.623Z,10.32
2023-04-13T17:03:43.382Z,10.28
2023-04-13T17:06:11.748Z,10.24
2023-04-13T17:08:45.392Z,10.21
2023-04-13T17:11:14.753Z,10.20
2023-04-13T17:13:43.146Z,10.18
2023-04-13T17:16:14.320Z,10.18
2023-04-13T17:18:44.359Z,10.16
2023-04-13T17:21:13.151Z,10.13
2023-04-13T17:23:41.683Z,10.11
2023-04-13T17:26:15.534Z,10.09
2023-04-13T17:28:43.893Z,10.07
2023-04-13T17:31:12.025Z,10.05
2023-04-13T17:33:41.897Z,10.03
2023-04-13T17:36:10.046Z,10.03
2023-04-13T17:38:38.529Z,10.02
2023-04-13T17:41:11.269Z,10.00
2023-04-13T17:43:40.731Z,9.97
2023-04-13T17:46:08.992Z,9.96
2023-04-13T17:48:37.407Z,9.93
2023-04-13T17:51:11.222Z,9.91
2023-04-13T17:53:39.883Z,9.90
2023-04-13T17:56:17.984Z,9.90
2023-04-13T17:58:47.290Z,9.90
2023-04-13T18:01:15.563Z,9.90
2023-04-13T18:03:47.766Z,9.90
2023-04-13T18:06:16.297Z,9.87
2023-04-13T18:08:44.565Z,9.86
2023-04-13T18:11:12.792Z,9.85
2023-04-13T18:13:43.452Z,9.84
2023-04-13T18:16:14.413Z,9.84
2023-04-13T18:18:43.169Z,9.82
2023-04-13T18:21:13.027Z,9.82
2023-04-13T18:23:41.431Z,9.82
2023-04-13T18:26:09.833Z,9.81
2023-04-13T18:28:38.183Z,9.80
2023-04-13T18:31:11.486Z,9.78
2023-04-13T18:33:40.022Z,9.77
2023-04-13T18:36:08.311Z,9.76
2023-04-13T18:38:40.472Z,9.76
2023-04-13T18:41:09.221Z,9.76
2023-04-13T18:43:37.473Z,9.75
2023-04-13T18:46:08.004Z,9.74
2023-04-13T18:48:37.310Z,9.72
2023-04-13T18:51:10.025Z,9.72
2023-04-13T18:53:39.703Z,9.73
2023-04-13T18:56:07.818Z,9.74
2023-04-13T18:58:37.047Z,9.73
2023-04-13T19:01:23.158Z,9.73
2023-04-13T19:03:52.840Z,9.71
2023-04-13T19:06:21.333Z,9.70
2023-04-13T19:08:51.097Z,9.68
2023-04-13T19:11:20.215Z,9.67
2023-04-13T19:13:48.366Z,9.66
2023-04-13T19:16:22.873Z,9.65
2023-04-13T19:18:51.500Z,9.64
2023-04-13T19:21:23.863Z,9.63
2023-04-13T19:23:56.820Z,9.62
2023-04-13T19:26:27.432Z,9.60
2023-04-13T19:28:56.023Z,9.58
2023-04-13T19:31:24.164Z,9.55
2023-04-13T19:33:53.455Z,9.52
2023-04-13T19:36:23.645Z,9.50
2023-04-13T19:38:52.967Z,9.48
2023-04-13T19:41:21.737Z,9.47
2023-04-13T19:43:51.115Z,9.47
2023-04-13T19:46:19.323Z,9.46
2023-04-13T19:48:49.200Z,9.46
2023-04-13T19:51:17.391Z,9.46
2023-04-13T19:53:48.466Z,9.44
2023-04-13T19:56:16.624Z,9.43
2023-04-13T19:58:44.782Z,9.42
2023-04-13T20:01:16.383Z,9.42
2023-04-13T20:03:46.150Z,9.42
2023-04-13T20:06:15.626Z,9.41
2023-04-13T20:08:46.685Z,9.39
2023-04-13T20:11:17.631Z,9.38
2023-04-13T20:13:47.379Z,9.37
2023-04-13T20:16:15.673Z,9.37
2023-04-13T20:18:45.725Z,9.37
2023-04-13T20:21:14.701Z,9.36
2023-04-13T20:23:42.964Z,9.35
2023-04-13T20:26:11.138Z,9.34
2023-04-13T20:28:39.776Z,9.32
2023-04-13T20:31:08.496Z,9.31
2023-04-13T20:33:38.535Z,9.30
2023-04-13T20:36:07.606Z,9.30
2023-04-13T20:38:36.686Z,9.31
2023-04-13T20:41:05.029Z,9.30
2023-04-13T20:43:33.442Z,9.30
2023-04-13T20:46:01.792Z,9.31
2023-04-13T20:51:10.046Z,9.30
2023-04-13T20:53:38.836Z,9.29
2023-04-13T20:56:07.734Z,9.29
2023-04-13T20:58:37.999Z,9.28
2023-04-13T21:01:06.215Z,9.28
2023-04-13T21:03:38.809Z,9.28
2023-04-13T21:06:07.879Z,9.28
2023-04-13T21:08:36.567Z,9.28
2023-04-13T21:11:06.461Z,9.26
2023-04-13T21:13:35.104Z,9.25
2023-04-13T21:16:03.481Z,9.25
2023-04-13T21:18:42.240Z,9.26
2023-04-13T21:21:13.203Z,9.27
2023-04-13T21:23:41.351Z,9.27
2023-04-13T21:26:13.440Z,9.26
2023-04-13T21:28:42.138Z,9.26
2023-04-13T21:31:10.234Z,9.25
2023-04-13T21:33:39.954Z,9.24
2023-04-13T21:38:41.369Z,9.20
2023-04-13T21:41:16.644Z,9.16
2023-04-13T21:43:44.869Z,9.14
2023-04-13T21:46:14.044Z,9.12
2023-04-13T21:48:42.429Z,9.11
2023-04-13T21:51:10.783Z,9.09
2023-04-13T21:53:39.574Z,9.08
2023-04-13T21:56:08.062Z,9.08
2023-04-13T21:58:42.831Z,9.07
2023-04-13T22:01:11.786Z,9.06
2023-04-13T22:03:47.030Z,9.04
2023-04-13T22:06:15.840Z,9.03
2023-04-13T22:08:48.954Z,9.03
2023-04-13T22:11:17.114Z,9.02
2023-04-13T22:13:45.261Z,9.01
2023-04-13T22:16:14.811Z,8.99
2023-04-13T22:18:44.077Z,8.97
2023-04-13T22:21:12.426Z,8.96
2023-04-13T22:23:43.756Z,8.94
2023-04-13T22:26:11.907Z,8.93
2023-04-13T22:28:40.493Z,8.91
2023-04-13T22:31:13.052Z,8.89
2023-04-13T22:33:42.291Z,8.89
2023-04-13T22:36:20.245Z,8.89
2023-04-13T22:38:48.552Z,8.88
2023-04-13T22:41:17.036Z,8.86
2023-04-13T22:43:45.167Z,8.84
2023-04-13T22:46:14.349Z,8.81
2023-04-13T22:48:42.975Z,8.77
2023-04-13T22:51:11.167Z,8.70
2023-04-13T22:53:39.397Z,8.66
2023-04-13T22:56:08.483Z,8.63
2023-04-13T22:58:37.257Z,8.60
2023-04-13T23:01:06.064Z,8.59
2023-04-13T23:03:36.777Z,8.58
2023-04-13T23:06:05.970Z,8.57
2023-04-13T23:08:39.490Z,8.57
2023-04-13T23:11:12.128Z,8.58
2023-04-13T23:13:40.534Z,8.58
2023-04-13T23:16:13.280Z,8.59
2023-04-13T23:18:42.830Z,8.58
2023-04-13T23:21:12.178Z,8.58
2023-04-13T23:23:40.595Z,8.58
2023-04-13T23:26:10.063Z,8.58
2023-04-13T23:28:38.571Z,8.59
2023-04-13T23:31:07.376Z,8.59
2023-04-13T23:33:36.827Z,8.59
2023-04-13T23:36:05.525Z,8.58
2023-04-13T23:38:36.518Z,8.58
2023-04-13T23:41:06.350Z,8.57
2023-04-13T23:43:34.618Z,8.58
2023-04-13T23:46:03.108Z,8.58
2023-04-13T23:48:32.538Z,8.58
2023-04-13T23:51:01.603Z,8.56
2023-04-13T23:53:30.984Z,8.54
2023-04-13T23:55:59.161Z,8.52
2023-04-13T23:58:27.339Z,8.50
